Archival Weather

Granbury Rgnl

Granbury, Texas (KGDJ)

Report from: Monday, January 29, 2024 12:15 AM UTC
Current time: Tuesday, June 18, 2024 12:53 PM UTC

Current weather – Weather history – Daily summaries
Weather forecast

Temperature13.0°C (55.4°F)
Dew point3.7°C (38.7°F)
Winds Calm
Visibility10 mi. (16.1 km)
Clouds Sky clear
Altimeter30.36 in.Hg (1028 mB)
Relative humidity53 %
Density altitude-619 ft. (-189 m)
Remarks Fully automated report
Automated weather observing station with precipitation discriminator
Flight conditions Visual Meteorological Conditions
Raw dataKGDJ 290015Z AUTO 00000KT 10SM CLR 13/04 A3036 RMK AO2 T01300037
An error has occurred. This application may no longer respond until reloaded. Reload 🗙